Time;durP1;ratioP1;P1;durP2;ratioP2;P2;SDS_P1;SDS_P2;PMS_P1;PMS_P2;Temp;Humidity;BMP_temperature;BMP_pressure;BME280_temperature;BME280_humidity;BME280_pressure;Samples;Min_cycle;Max_cycle;Signal;HPM_P1;HPM_P2
2022/03/27 00:01:29;;;;;;;19.23;11.67;;;;;;;;;;5079456;28;20036;-65
2022/03/27 00:03:55;;;;;;;19.33;11.33;;;;;;;;;;5092157;28;20058;-65
2022/03/27 00:06:21;;;;;;;21.27;10.80;;;;;;;;;;5100533;28;20051;-65
2022/03/27 00:08:47;;;;;;;22.03;10.80;;;;;;;;;;5097313;28;20110;-65
2022/03/27 00:11:25;;;;;;;17.13;10.67;;;;;;;;;;5095939;28;20723;-65
2022/03/27 00:13:51;;;;;;;20.93;11.07;;;;;;;;;;5097669;28;20051;-65
2022/03/27 00:16:17;;;;;;;22.13;10.40;;;;;;;;;;5098751;28;20056;-65
2022/03/27 00:18:43;;;;;;;18.80;10.33;;;;;;;;;;5100393;28;20041;-65
2022/03/27 00:21:10;;;;;;;22.37;10.67;;;;;;;;;;5099893;28;20050;-65
2022/03/27 00:23:36;;;;;;;18.20;10.50;;;;;;;;;;5095771;28;20036;-65
2022/03/27 00:26:02;;;;;;;17.10;9.77;;;;;;;;;;5100182;28;20047;-65
2022/03/27 00:28:32;;;;;;;18.27;9.57;;;;;;;;;;5096710;28;20138;-65
2022/03/27 00:31:02;;;;;;;21.37;10.27;;;;;;;;;;5097743;28;20048;-65
2022/03/27 00:33:28;;;;;;;15.80;8.77;;;;;;;;;;5099456;28;20078;-65
2022/03/27 00:35:55;;;;;;;18.57;9.60;;;;;;;;;;5097888;28;20113;-65
2022/03/27 00:38:21;;;;;;;20.07;9.73;;;;;;;;;;5097761;28;20048;-65
2022/03/27 00:40:49;;;;;;;20.87;9.67;;;;;;;;;;5097804;28;20050;-65
2022/03/27 00:43:15;;;;;;;17.13;8.47;;;;;;;;;;5101050;28;20047;-65
2022/03/27 00:45:41;;;;;;;22.07;10.23;;;;;;;;;;5078608;28;20043;-65
2022/03/27 00:48:07;;;;;;;21.00;9.93;;;;;;;;;;5094821;28;20061;-65
2022/03/27 00:50:34;;;;;;;20.80;9.67;;;;;;;;;;5100802;28;20040;-65
2022/03/27 00:53:00;;;;;;;18.73;8.93;;;;;;;;;;5089802;28;20623;-65
2022/03/27 00:55:26;;;;;;;20.80;9.57;;;;;;;;;;5098277;28;20540;-65
2022/03/27 00:57:52;;;;;;;19.20;9.17;;;;;;;;;;5098738;28;20079;-65
2022/03/27 01:00:36;;;;;;;19.03;9.33;;;;;;;;;;5096319;28;20039;-65
2022/03/27 01:03:04;;;;;;;;;;;;;;;;;;5102579;28;20051;-65
2022/03/27 01:05:30;;;;;;;19.73;9.10;;;;;;;;;;5096551;28;19943;-65
2022/03/27 01:07:56;;;;;;;19.07;9.03;;;;;;;;;;5097928;28;20040;-65
2022/03/27 01:10:24;;;;;;;22.87;11.67;;;;;;;;;;5090907;28;20135;-65
2022/03/27 01:12:51;;;;;;;21.10;9.63;;;;;;;;;;5094039;28;20406;-65
2022/03/27 01:15:53;;;;;;;23.03;10.07;;;;;;;;;;5108567;28;20039;-65
2022/03/27 01:18:19;;;;;;;19.77;9.17;;;;;;;;;;4994815;28;20052;-65
2022/03/27 01:20:46;;;;;;;21.60;9.80;;;;;;;;;;5070438;28;20098;-65
2022/03/27 01:23:12;;;;;;;23.80;9.10;;;;;;;;;;5107217;28;20042;-66
2022/03/27 01:25:39;;;;;;;22.70;9.50;;;;;;;;;;5093157;28;20039;-65
2022/03/27 01:28:06;;;;;;;28.20;11.27;;;;;;;;;;5100946;28;20134;-65
2022/03/27 01:30:32;;;;;;;27.23;12.00;;;;;;;;;;5098419;28;20047;-65
2022/03/27 01:32:58;;;;;;;32.47;12.37;;;;;;;;;;5091931;28;20087;-65
2022/03/27 01:35:24;;;;;;;36.13;14.43;;;;;;;;;;5104718;28;20076;-65
2022/03/27 01:37:51;;;;;;;37.77;15.67;;;;;;;;;;5097442;28;20531;-65
2022/03/27 01:40:17;;;;;;;41.87;17.87;;;;;;;;;;5097338;28;20131;-65
2022/03/27 01:42:44;;;;;;;49.17;19.67;;;;;;;;;;5096252;28;20568;-65
2022/03/27 01:45:10;;;;;;;57.33;21.83;;;;;;;;;;5097189;28;20050;-65
2022/03/27 01:47:37;;;;;;;59.60;23.60;;;;;;;;;;5089413;28;20361;-65
2022/03/27 01:50:03;;;;;;;48.43;20.77;;;;;;;;;;5087739;28;20575;-65
2022/03/27 01:52:29;;;;;;;45.50;18.80;;;;;;;;;;5101568;28;20088;-65
2022/03/27 01:54:55;;;;;;;50.67;18.73;;;;;;;;;;5096366;28;20093;-65
2022/03/27 01:57:21;;;;;;;43.37;18.03;;;;;;;;;;5096645;28;21500;-65
2022/03/27 01:59:47;;;;;;;35.73;16.30;;;;;;;;;;5094343;28;20040;-66
2022/03/27 02:02:13;;;;;;;34.10;16.30;;;;;;;;;;5078685;28;20047;-66
2022/03/27 02:04:39;;;;;;;39.27;17.13;;;;;;;;;;5088687;28;20051;-65
2022/03/27 02:07:05;;;;;;;37.87;17.83;;;;;;;;;;5097140;28;20040;-65
2022/03/27 02:09:31;;;;;;;38.60;17.47;;;;;;;;;;5096984;28;20405;-66
2022/03/27 02:11:57;;;;;;;38.37;16.67;;;;;;;;;;5097071;28;20044;-65
2022/03/27 02:14:23;;;;;;;33.77;15.67;;;;;;;;;;5096727;28;20044;-65
2022/03/27 02:16:49;;;;;;;41.73;17.23;;;;;;;;;;5070229;28;20040;-65
2022/03/27 02:19:16;;;;;;;40.93;17.40;;;;;;;;;;5085199;28;20050;-65
2022/03/27 02:21:42;;;;;;;37.97;15.80;;;;;;;;;;5094991;28;20032;-65
2022/03/27 02:24:09;;;;;;;41.23;14.60;;;;;;;;;;5088835;28;20457;-65
2022/03/27 02:26:35;;;;;;;37.07;15.43;;;;;;;;;;5097001;28;20089;-65
2022/03/27 02:29:01;;;;;;;36.43;15.20;;;;;;;;;;5092985;28;20044;-65
2022/03/27 02:31:28;;;;;;;35.70;15.57;;;;;;;;;;5089751;28;20048;-65
2022/03/27 02:33:54;;;;;;;47.13;17.87;;;;;;;;;;5096423;28;20055;-65
2022/03/27 02:36:20;;;;;;;34.40;16.07;;;;;;;;;;5104556;28;20084;-65
2022/03/27 02:38:46;;;;;;;44.23;18.60;;;;;;;;;;5095370;28;20069;-65
2022/03/27 02:41:12;;;;;;;44.37;17.87;;;;;;;;;;5092562;28;20168;-65
2022/03/27 02:43:38;;;;;;;39.33;15.70;;;;;;;;;;5088794;28;20170;-65
2022/03/27 02:46:07;;;;;;;37.23;15.93;;;;;;;;;;5107691;28;20039;-64
2022/03/27 02:48:33;;;;;;;43.97;17.53;;;;;;;;;;5089892;28;20062;-65
2022/03/27 02:50:59;;;;;;;52.50;18.03;;;;;;;;;;5093395;28;20054;-65
2022/03/27 02:53:25;;;;;;;41.23;17.00;;;;;;;;;;5098656;28;20035;-65
2022/03/27 02:55:51;;;;;;;43.47;17.00;;;;;;;;;;5091579;28;20551;-65
2022/03/27 02:58:17;;;;;;;45.70;16.33;;;;;;;;;;5082901;28;20044;-65
2022/03/27 03:00:44;;;;;;;39.57;15.17;;;;;;;;;;5087868;28;20421;-65
2022/03/27 03:03:10;;;;;;;42.57;17.43;;;;;;;;;;5087661;28;20127;-65
2022/03/27 03:05:40;;;;;;;47.10;16.73;;;;;;;;;;5098143;28;20044;-65
2022/03/27 03:08:11;;;;;;;45.90;16.60;;;;;;;;;;5095196;28;20287;-65
2022/03/27 03:10:40;;;;;;;39.73;15.40;;;;;;;;;;5104957;28;20047;-65
2022/03/27 03:13:08;;;;;;;39.70;14.47;;;;;;;;;;5101307;28;20409;-66
2022/03/27 03:15:34;;;;;;;34.17;12.67;;;;;;;;;;5090890;28;20825;-65
2022/03/27 03:18:00;;;;;;;26.27;11.83;;;;;;;;;;5069989;28;20051;-65
2022/03/27 03:20:27;;;;;;;27.63;12.37;;;;;;;;;;5090455;28;20051;-65
2022/03/27 03:22:53;;;;;;;29.73;12.77;;;;;;;;;;5077810;28;20054;-65
2022/03/27 03:25:19;;;;;;;23.90;11.07;;;;;;;;;;5087765;28;20044;-65
2022/03/27 03:27:45;;;;;;;26.00;10.70;;;;;;;;;;5103579;28;20051;-65
2022/03/27 03:30:12;;;;;;;32.37;13.57;;;;;;;;;;5099209;28;20044;-65
2022/03/27 03:32:38;;;;;;;24.13;11.00;;;;;;;;;;5107614;28;20047;-65
2022/03/27 03:35:05;;;;;;;33.63;12.33;;;;;;;;;;5096874;28;20552;-65
2022/03/27 03:37:31;;;;;;;29.33;12.60;;;;;;;;;;5101296;28;20048;-65
2022/03/27 03:39:57;;;;;;;39.90;14.90;;;;;;;;;;5109613;28;20044;-65
2022/03/27 03:42:23;;;;;;;40.23;13.47;;;;;;;;;;5103220;28;20050;-65
2022/03/27 03:44:49;;;;;;;42.40;14.87;;;;;;;;;;5094631;28;20051;-65
2022/03/27 03:47:15;;;;;;;34.30;13.70;;;;;;;;;;5102912;28;20066;-65
2022/03/27 03:49:41;;;;;;;39.10;13.20;;;;;;;;;;5095582;28;20438;-65
2022/03/27 03:52:07;;;;;;;44.07;14.73;;;;;;;;;;5091542;28;20612;-65
2022/03/27 03:54:35;;;;;;;41.53;13.47;;;;;;;;;;5097652;28;20122;-65
2022/03/27 03:57:04;;;;;;;36.10;14.33;;;;;;;;;;5102267;28;20472;-65
2022/03/27 03:59:33;;;;;;;35.23;12.97;;;;;;;;;;5105439;28;20036;-65
2022/03/27 04:01:59;;;;;;;39.00;13.43;;;;;;;;;;5107706;28;20153;-65
2022/03/27 04:04:25;;;;;;;41.53;13.97;;;;;;;;;;5095447;28;20036;-65
2022/03/27 04:06:51;;;;;;;40.20;12.37;;;;;;;;;;5099121;28;20096;-65
2022/03/27 04:09:17;;;;;;;45.40;15.00;;;;;;;;;;5100378;28;20286;-65
2022/03/27 04:11:44;;;;;;;38.03;13.40;;;;;;;;;;5099415;28;20110;-65
2022/03/27 04:14:10;;;;;;;36.53;12.30;;;;;;;;;;5098679;28;20469;-65
2022/03/27 04:16:36;;;;;;;42.27;13.60;;;;;;;;;;5099230;28;20127;-65
2022/03/27 04:19:03;;;;;;;53.33;15.47;;;;;;;;;;5092847;28;20044;-65
2022/03/27 04:21:29;;;;;;;50.93;15.33;;;;;;;;;;5093554;28;20058;-65
2022/03/27 04:23:55;;;;;;;46.07;14.47;;;;;;;;;;5097120;28;20097;-65
2022/03/27 04:26:21;;;;;;;49.73;14.53;;;;;;;;;;5093533;28;20309;-65
2022/03/27 04:28:47;;;;;;;50.70;14.87;;;;;;;;;;5090593;28;20048;-65
2022/03/27 04:31:14;;;;;;;46.67;16.20;;;;;;;;;;5099331;28;20308;-65
2022/03/27 04:33:40;;;;;;;60.17;16.03;;;;;;;;;;5092175;28;20324;-65
2022/03/27 04:36:08;;;;;;;47.87;16.07;;;;;;;;;;5090716;28;20571;-65
2022/03/27 04:38:34;;;;;;;58.77;17.37;;;;;;;;;;5090524;28;20044;-65
2022/03/27 04:41:00;;;;;;;42.60;16.03;;;;;;;;;;5090724;28;20314;-65
2022/03/27 04:43:28;;;;;;;62.03;16.70;;;;;;;;;;5090332;28;20274;-65
2022/03/27 04:45:54;;;;;;;61.17;18.53;;;;;;;;;;5090511;28;20047;-66
2022/03/27 04:48:20;;;;;;;56.50;17.87;;;;;;;;;;5097520;28;20226;-65
2022/03/27 04:50:46;;;;;;;59.07;16.20;;;;;;;;;;5090134;28;20286;-65
2022/03/27 04:53:12;;;;;;;74.90;16.83;;;;;;;;;;5097105;28;20039;-65
2022/03/27 04:55:38;;;;;;;55.23;16.03;;;;;;;;;;5081745;28;20052;-65
2022/03/27 04:58:08;;;;;;;50.27;15.53;;;;;;;;;;5094832;28;20040;-65
2022/03/27 05:00:34;;;;;;;50.93;15.80;;;;;;;;;;5098150;28;20309;-66
2022/03/27 05:03:00;;;;;;;70.73;16.77;;;;;;;;;;5097553;28;20227;-65
2022/03/27 05:05:26;;;;;;;83.73;19.00;;;;;;;;;;5096713;28;20306;-65
2022/03/27 05:07:53;;;;;;;69.27;18.03;;;;;;;;;;5079137;28;20285;-65
2022/03/27 05:10:19;;;;;;;78.10;18.90;;;;;;;;;;5089081;28;20297;-65
2022/03/27 05:12:46;;;;;;;73.03;18.67;;;;;;;;;;5098003;28;20294;-65
2022/03/27 05:15:12;;;;;;;88.60;19.97;;;;;;;;;;5098180;28;20294;-65
2022/03/27 05:17:48;;;;;;;78.07;20.43;;;;;;;;;;5098558;28;20370;-65
2022/03/27 05:20:14;;;;;;;84.73;18.77;;;;;;;;;;5099628;28;20302;-66
2022/03/27 05:22:42;;;;;;;64.13;18.10;;;;;;;;;;5099327;28;20838;-65
2022/03/27 05:25:08;;;;;;;73.97;18.07;;;;;;;;;;5098798;28;20294;-65
2022/03/27 05:27:34;;;;;;;59.47;16.03;;;;;;;;;;5081909;28;20298;-65
2022/03/27 05:30:00;;;;;;;54.40;14.70;;;;;;;;;;5093209;28;20289;-65
2022/03/27 05:32:26;;;;;;;54.27;15.03;;;;;;;;;;5079468;28;20699;-65
2022/03/27 05:34:52;;;;;;;40.03;10.67;;;;;;;;;;5091585;28;20155;-65
2022/03/27 05:37:18;;;;;;;36.20;9.40;;;;;;;;;;5095691;28;20282;-65
2022/03/27 05:39:44;;;;;;;39.47;10.73;;;;;;;;;;5101272;28;20075;-65
2022/03/27 05:42:10;;;;;;;56.60;15.70;;;;;;;;;;5098444;28;20055;-65
2022/03/27 05:44:36;;;;;;;54.77;14.13;;;;;;;;;;5096424;28;20039;-65
2022/03/27 05:47:03;;;;;;;67.13;17.50;;;;;;;;;;5097069;28;20083;-65
2022/03/27 05:49:29;;;;;;;67.07;16.60;;;;;;;;;;5097582;28;20051;-65
2022/03/27 05:51:55;;;;;;;62.57;17.90;;;;;;;;;;5099383;28;20079;-65
2022/03/27 05:54:21;;;;;;;62.50;17.53;;;;;;;;;;5097288;28;20078;-65
2022/03/27 05:56:47;;;;;;;66.60;16.90;;;;;;;;;;5100297;28;20096;-65
2022/03/27 05:59:14;;;;;;;62.50;16.20;;;;;;;;;;5096215;28;20051;-65
2022/03/27 06:01:40;;;;;;;61.40;15.97;;;;;;;;;;5094854;28;20043;-66
2022/03/27 06:04:06;;;;;;;60.13;16.73;;;;;;;;;;5094615;28;20049;-65
2022/03/27 06:06:32;;;;;;;66.63;17.27;;;;;;;;;;5095947;28;20048;-65
2022/03/27 06:08:58;;;;;;;46.47;16.27;;;;;;;;;;5096686;28;20051;-65
2022/03/27 06:11:25;;;;;;;64.37;19.57;;;;;;;;;;5095512;28;20047;-66
2022/03/27 06:13:51;;;;;;;57.97;17.03;;;;;;;;;;5095769;28;20047;-65
2022/03/27 06:16:17;;;;;;;59.27;17.10;;;;;;;;;;5096368;28;20054;-65
2022/03/27 06:18:44;;;;;;;79.13;19.90;;;;;;;;;;5095794;28;20409;-65
2022/03/27 06:21:10;;;;;;;73.83;18.43;;;;;;;;;;5095029;28;20410;-65
2022/03/27 06:23:36;;;;;;;71.97;20.07;;;;;;;;;;5096936;28;20402;-65
2022/03/27 06:26:02;;;;;;;71.27;19.47;;;;;;;;;;5092844;28;20050;-65
2022/03/27 06:28:28;;;;;;;55.60;18.03;;;;;;;;;;5093252;28;20048;-66
2022/03/27 06:30:54;;;;;;;51.47;17.90;;;;;;;;;;5088912;28;20047;-66
2022/03/27 06:33:20;;;;;;;70.30;17.67;;;;;;;;;;5097916;28;20382;-66
2022/03/27 06:35:46;;;;;;;72.07;19.33;;;;;;;;;;5098654;28;20621;-65
2022/03/27 06:38:12;;;;;;;67.93;19.60;;;;;;;;;;5099215;28;20074;-66
2022/03/27 06:40:38;;;;;;;61.50;19.10;;;;;;;;;;5099464;28;20079;-66
2022/03/27 06:43:04;;;;;;;67.03;17.77;;;;;;;;;;5090364;28;20058;-66
2022/03/27 06:45:31;;;;;;;85.50;23.10;;;;;;;;;;5100567;28;20470;-66
2022/03/27 06:47:57;;;;;;;77.80;21.20;;;;;;;;;;5094407;28;20050;-66
2022/03/27 06:50:23;;;;;;;73.87;21.23;;;;;;;;;;5095737;28;20044;-66
2022/03/27 06:52:50;;;;;;;75.37;20.17;;;;;;;;;;5093932;28;20039;-66
2022/03/27 06:55:17;;;;;;;95.10;21.50;;;;;;;;;;5085359;28;20086;-66
2022/03/27 06:57:43;;;;;;;78.10;20.10;;;;;;;;;;5086917;28;20043;-66
2022/03/27 07:03:01;;;;;;;76.83;20.80;;;;;;;;;;5094151;28;20052;-66
2022/03/27 07:05:28;;;;;;;73.37;19.83;;;;;;;;;;5090845;28;20097;-66
2022/03/27 07:07:54;;;;;;;67.43;18.63;;;;;;;;;;5080687;28;20416;-66
2022/03/27 07:10:20;;;;;;;67.73;18.90;;;;;;;;;;5088815;28;20044;-66
2022/03/27 07:12:47;;;;;;;66.50;18.57;;;;;;;;;;5102435;28;20467;-66
2022/03/27 07:15:14;;;;;;;48.50;17.23;;;;;;;;;;5110614;28;20048;-66
2022/03/27 07:17:47;;;;;;;51.93;18.07;;;;;;;;;;5090485;28;20525;-67
2022/03/27 07:20:17;;;;;;;61.15;15.95;;;;;;;;;;5098847;28;20413;-64
2022/03/27 07:22:43;;;;;;;63.80;16.93;;;;;;;;;;5103342;28;20046;-64
2022/03/27 07:25:09;;;;;;;52.67;17.80;;;;;;;;;;5103214;28;20519;-64
2022/03/27 07:27:36;;;;;;;64.27;16.97;;;;;;;;;;5093377;28;20051;-64
2022/03/27 07:30:02;;;;;;;52.30;15.70;;;;;;;;;;5101149;28;20402;-64
2022/03/27 07:32:28;;;;;;;57.60;16.50;;;;;;;;;;5100020;28;20079;-64
2022/03/27 07:34:56;;;;;;;53.93;15.30;;;;;;;;;;5097006;28;20478;-64
2022/03/27 07:37:22;;;;;;;66.57;17.40;;;;;;;;;;5098689;28;20048;-64
2022/03/27 07:39:49;;;;;;;60.77;15.67;;;;;;;;;;5092947;28;20516;-65
2022/03/27 07:42:15;;;;;;;49.60;13.93;;;;;;;;;;5095282;28;20080;-65
2022/03/27 07:44:41;;;;;;;44.67;13.40;;;;;;;;;;5081167;28;20094;-65
2022/03/27 07:47:07;;;;;;;41.93;14.87;;;;;;;;;;5095725;28;20127;-65
2022/03/27 07:49:33;;;;;;;50.87;15.80;;;;;;;;;;5100788;28;20547;-65
2022/03/27 07:52:00;;;;;;;53.97;16.97;;;;;;;;;;5090524;28;20040;-65
2022/03/27 07:54:27;;;;;;;52.07;15.53;;;;;;;;;;5106800;28;20509;-64
2022/03/27 07:56:53;;;;;;;49.97;14.77;;;;;;;;;;5089982;28;20081;-65
2022/03/27 07:59:19;;;;;;;50.57;13.03;;;;;;;;;;5090389;28;20040;-65
2022/03/27 08:01:45;;;;;;;35.27;12.30;;;;;;;;;;5098739;28;20055;-64
2022/03/27 08:04:11;;;;;;;37.87;13.17;;;;;;;;;;5097175;28;20036;-65
2022/03/27 08:06:37;;;;;;;38.10;12.33;;;;;;;;;;5098385;28;20123;-65
2022/03/27 08:09:05;;;;;;;37.63;11.83;;;;;;;;;;5091343;28;20131;-65
2022/03/27 08:11:32;;;;;;;36.70;12.17;;;;;;;;;;5105678;28;20040;-65
2022/03/27 08:13:58;;;;;;;31.00;11.47;;;;;;;;;;5099681;28;20040;-65
2022/03/27 08:16:26;;;;;;;37.87;12.53;;;;;;;;;;5093878;28;20043;-65
2022/03/27 08:18:52;;;;;;;35.57;10.50;;;;;;;;;;5090092;28;20105;-65
2022/03/27 08:21:18;;;;;;;28.10;9.63;;;;;;;;;;5089209;28;20468;-65
2022/03/27 08:23:44;;;;;;;29.07;9.37;;;;;;;;;;5089490;28;20043;-65
2022/03/27 08:28:54;;;;;;;32.67;11.60;;;;;;;;;;5098098;28;20087;-65
2022/03/27 08:31:20;;;;;;;32.20;10.90;;;;;;;;;;5098994;28;20082;-65
2022/03/27 08:33:48;;;;;;;31.00;10.17;;;;;;;;;;5098211;28;20047;-65
2022/03/27 08:36:14;;;;;;;29.77;10.40;;;;;;;;;;5090053;28;20773;-65
2022/03/27 08:38:40;;;;;;;29.53;11.47;;;;;;;;;;5089944;28;20052;-65
2022/03/27 08:41:06;;;;;;;33.67;11.17;;;;;;;;;;5092385;28;20048;-65
2022/03/27 08:43:33;;;;;;;31.03;12.00;;;;;;;;;;5106952;28;20108;-65
2022/03/27 08:46:00;;;;;;;35.07;11.57;;;;;;;;;;5084372;28;20070;-65
2022/03/27 08:48:30;;;;;;;29.53;11.40;;;;;;;;;;5089277;28;20039;-65
2022/03/27 08:50:58;;;;;;;28.43;10.27;;;;;;;;;;5089114;28;20048;-65
2022/03/27 08:53:29;;;;;;;36.67;11.13;;;;;;;;;;5094051;28;20048;-65
2022/03/27 08:55:58;;;;;;;33.77;10.77;;;;;;;;;;5092855;28;20143;-65
2022/03/27 08:58:50;;;;;;;33.03;10.53;;;;;;;;;;5098717;28;20040;-66
2022/03/27 09:01:17;;;;;;;36.53;11.97;;;;;;;;;;5095930;28;20058;-66
2022/03/27 09:03:44;;;;;;;30.07;10.30;;;;;;;;;;5102229;28;20048;-66
2022/03/27 09:06:10;;;;;;;27.03;9.23;;;;;;;;;;5097563;28;20071;-65
2022/03/27 09:08:36;;;;;;;29.80;8.80;;;;;;;;;;5079846;28;20062;-65
2022/03/27 09:11:03;;;;;;;30.90;9.33;;;;;;;;;;5088272;28;20040;-66
2022/03/27 09:13:30;;;;;;;29.83;8.03;;;;;;;;;;5093060;28;20039;-65
2022/03/27 09:16:08;;;;;;;24.33;8.27;;;;;;;;;;5074035;28;20493;-66
2022/03/27 09:18:49;;;;;;;22.87;7.17;;;;;;;;;;5100332;28;20409;-65
2022/03/27 09:21:15;;;;;;;29.20;8.20;;;;;;;;;;5091199;28;20048;-65
2022/03/27 09:23:42;;;;;;;24.90;7.70;;;;;;;;;;5093881;28;20036;-65
2022/03/27 09:26:11;;;;;;;25.50;8.67;;;;;;;;;;5096030;28;20678;-65
2022/03/27 09:28:41;;;;;;;28.13;8.43;;;;;;;;;;5076468;28;20052;-65
2022/03/27 09:31:18;;;;;;;31.43;8.63;;;;;;;;;;5060888;28;20052;-65
2022/03/27 09:33:47;;;;;;;23.17;7.80;;;;;;;;;;5096287;28;20482;-65
2022/03/27 09:36:14;;;;;;;31.37;8.50;;;;;;;;;;5094281;28;20210;-65
2022/03/27 09:38:40;;;;;;;26.27;8.13;;;;;;;;;;5095128;28;20047;-65
2022/03/27 09:41:07;;;;;;;25.57;8.00;;;;;;;;;;5096491;28;20054;-66
2022/03/27 09:43:33;;;;;;;21.87;7.00;;;;;;;;;;5076823;28;20076;-65
2022/03/27 09:46:01;;;;;;;23.97;7.40;;;;;;;;;;5090546;28;20040;-65
2022/03/27 09:48:28;;;;;;;24.73;7.43;;;;;;;;;;5094893;28;20052;-65
2022/03/27 09:50:54;;;;;;;26.10;8.40;;;;;;;;;;5096420;28;20040;-66
2022/03/27 09:53:28;;;;;;;22.03;7.13;;;;;;;;;;5097298;28;20040;-66
2022/03/27 09:55:54;;;;;;;26.45;7.18;;;;;;;;;;5094772;28;20127;-65
2022/03/27 09:58:38;;;;;;;22.47;7.57;;;;;;;;;;5088027;28;20135;-66
2022/03/27 10:01:08;;;;;;;20.83;7.13;;;;;;;;;;5098645;28;20093;-66
2022/03/27 10:03:34;;;;;;;30.90;7.60;;;;;;;;;;5105851;28;20062;-66
2022/03/27 10:06:02;;;;;;;33.17;7.27;;;;;;;;;;5094118;28;20048;-66
2022/03/27 10:08:28;;;;;;;23.63;7.80;;;;;;;;;;5088013;28;20754;-66
2022/03/27 10:10:55;;;;;;;24.20;6.73;;;;;;;;;;5097429;28;20063;-65
2022/03/27 10:13:22;;;;;;;22.37;7.13;;;;;;;;;;5091257;28;20091;-66
2022/03/27 10:15:52;;;;;;;23.43;7.33;;;;;;;;;;5097391;28;20032;-66
2022/03/27 10:18:21;;;;;;;26.30;7.77;;;;;;;;;;5093019;28;20047;-66
2022/03/27 10:20:50;;;;;;;23.13;6.80;;;;;;;;;;5087665;28;20047;-66
2022/03/27 10:23:23;;;;;;;23.73;6.77;;;;;;;;;;5096153;28;20565;-66
2022/03/27 10:25:50;;;;;;;22.75;6.80;;;;;;;;;;5097979;28;20467;-65
2022/03/27 10:28:20;;;;;;;26.03;7.20;;;;;;;;;;5092774;28;20552;-65
2022/03/27 10:30:49;;;;;;;20.27;6.33;;;;;;;;;;5087696;28;20090;-64
2022/03/27 10:33:16;;;;;;;22.20;6.77;;;;;;;;;;5094536;28;20380;-65
2022/03/27 10:35:54;;;;;;;23.53;7.43;;;;;;;;;;5098801;28;20078;-66
2022/03/27 10:38:39;;;;;;;33.10;7.47;;;;;;;;;;5093877;28;20040;-66
2022/03/27 10:41:17;;;;;;;25.83;7.07;;;;;;;;;;5091051;28;20047;-66
2022/03/27 10:43:58;;;;;;;19.83;5.73;;;;;;;;;;5098086;28;20043;-66
2022/03/27 10:46:26;;;;;;;26.67;6.63;;;;;;;;;;5097475;28;20111;-66
2022/03/27 10:48:53;;;;;;;18.83;6.00;;;;;;;;;;5081519;28;20068;-66
2022/03/27 10:51:25;;;;;;;25.97;6.53;;;;;;;;;;5101000;28;20081;-66
2022/03/27 10:54:26;;;;;;;25.33;6.23;;;;;;;;;;5099810;28;20044;-66
2022/03/27 10:56:54;;;;;;;22.23;5.83;;;;;;;;;;5036782;28;20071;-65
2022/03/27 10:59:24;;;;;;;24.07;6.93;;;;;;;;;;5078410;28;20052;-66
2022/03/27 11:01:50;;;;;;;20.87;6.17;;;;;;;;;;5078702;28;20052;-66
2022/03/27 11:04:17;;;;;;;25.23;6.27;;;;;;;;;;5095180;28;20040;-66
2022/03/27 11:06:44;;;;;;;21.67;6.33;;;;;;;;;;5106584;28;20617;-66
2022/03/27 11:09:13;;;;;;;19.87;5.37;;;;;;;;;;5091990;28;20044;-64
2022/03/27 11:11:43;;;;;;;17.23;6.10;;;;;;;;;;5081704;28;20114;-65
2022/03/27 11:14:09;;;;;;;19.87;5.53;;;;;;;;;;5099456;28;20079;-65
2022/03/27 11:16:55;;;;;;;27.67;6.80;;;;;;;;;;5088325;28;20134;-66
2022/03/27 11:19:41;;;;;;;17.00;4.80;;;;;;;;;;5082535;28;20120;-65
2022/03/27 11:22:09;;;;;;;21.00;5.77;;;;;;;;;;5100654;28;20059;-65
2022/03/27 11:24:35;;;;;;;21.37;5.30;;;;;;;;;;5098962;28;20101;-66
2022/03/27 11:27:01;;;;;;;17.00;5.40;;;;;;;;;;5097422;28;20044;-66
2022/03/27 11:29:27;;;;;;;16.53;5.63;;;;;;;;;;5098415;28;20040;-66
2022/03/27 11:32:08;;;;;;;21.07;5.93;;;;;;;;;;5099503;28;20555;-65
2022/03/27 11:34:35;;;;;;;18.73;5.30;;;;;;;;;;5098859;28;20055;-65
2022/03/27 11:37:14;;;;;;;19.40;5.50;;;;;;;;;;5097228;28;20593;-65
2022/03/27 11:39:41;;;;;;;20.77;5.73;;;;;;;;;;5097376;28;20040;-65
2022/03/27 11:42:24;;;;;;;21.87;5.50;;;;;;;;;;5099211;28;20162;-65
2022/03/27 11:45:09;;;;;;;19.58;4.68;;;;;;;;;;5089567;28;20127;-65
2022/03/27 11:47:42;;;;;;;18.33;5.23;;;;;;;;;;5097503;28;20040;-65
2022/03/27 11:50:09;;;;;;;18.53;5.50;;;;;;;;;;5099845;28;20516;-65
2022/03/27 11:52:36;;;;;;;24.03;6.30;;;;;;;;;;5100197;28;20043;-65
2022/03/27 11:55:06;;;;;;;18.90;5.47;;;;;;;;;;5097693;28;20044;-65
2022/03/27 11:57:42;;;;;;;16.27;5.17;;;;;;;;;;5098183;28;20101;-66
2022/03/27 12:00:08;;;;;;;18.47;5.30;;;;;;;;;;5097493;28;20058;-66
2022/03/27 12:02:42;;;;;;;17.63;6.13;;;;;;;;;;5102297;28;20048;-65
2022/03/27 12:05:08;;;;;;;21.13;7.07;;;;;;;;;;5097304;28;20425;-65
2022/03/27 12:07:50;;;;;;;18.92;5.15;;;;;;;;;;5107482;28;20043;-65
2022/03/27 12:10:16;;;;;;;14.75;4.95;;;;;;;;;;5101992;28;20058;-65
2022/03/27 12:13:02;;;;;;;23.88;5.10;;;;;;;;;;5090480;28;20044;-65
2022/03/27 12:15:49;;;;;;;16.75;5.80;;;;;;;;;;5095259;28;20618;-65
2022/03/27 12:18:15;;;;;;;17.90;5.47;;;;;;;;;;5103149;28;20399;-65
2022/03/27 12:20:42;;;;;;;15.75;5.53;;;;;;;;;;5098314;28;20078;-65
2022/03/27 12:23:22;;;;;;;20.10;5.75;;;;;;;;;;5098590;28;20383;-65
2022/03/27 12:26:00;;;;;;;14.60;4.75;;;;;;;;;;5089019;28;20044;-65
2022/03/27 12:31:24;;;;;;;15.82;5.43;;;;;;;;;;5101412;28;20539;-66
2022/03/27 12:33:51;;;;;;;17.20;5.22;;;;;;;;;;5094983;28;20177;-65
2022/03/27 12:36:17;;;;;;;18.58;6.38;;;;;;;;;;5091442;28;20044;-66
2022/03/27 12:38:43;;;;;;;17.48;5.20;;;;;;;;;;5101600;28;20048;-65
2022/03/27 12:41:11;;;;;;;14.82;5.00;;;;;;;;;;5091943;28;20048;-66
2022/03/27 12:43:55;;;;;;;16.55;5.20;;;;;;;;;;5096152;28;20614;-66
2022/03/27 12:46:23;;;;;;;13.70;4.82;;;;;;;;;;5093458;28;20055;-65
2022/03/27 12:48:59;;;;;;;15.77;4.53;;;;;;;;;;5102065;28;20042;-65
2022/03/27 12:51:25;;;;;;;14.90;4.78;;;;;;;;;;5100570;28;20050;-66
2022/03/27 12:54:07;;;;;;;14.18;5.05;;;;;;;;;;5100955;28;20039;-65
2022/03/27 12:56:34;;;;;;;16.73;5.60;;;;;;;;;;5107892;28;20546;-66
2022/03/27 12:59:17;;;;;;;19.23;5.50;;;;;;;;;;5102827;28;20055;-66
2022/03/27 13:01:43;;;;;;;16.38;5.93;;;;;;;;;;5092947;28;20082;-65
2022/03/27 13:04:10;;;;;;;17.50;6.22;;;;;;;;;;5094014;28;20109;-65
2022/03/27 13:06:43;;;;;;;16.30;5.63;;;;;;;;;;5097384;28;20051;-65
2022/03/27 13:09:12;;;;;;;19.35;5.43;;;;;;;;;;5103928;28;20130;-65
2022/03/27 13:11:45;;;;;;;17.50;6.45;;;;;;;;;;5091983;28;20040;-65
2022/03/27 13:14:11;;;;;;;16.77;5.13;;;;;;;;;;5098147;28;20036;-65
2022/03/27 13:16:46;;;;;;;14.77;5.32;;;;;;;;;;5092615;28;20501;-65
2022/03/27 13:19:13;;;;;;;14.32;5.25;;;;;;;;;;5097619;28;20072;-65
2022/03/27 13:21:47;;;;;;;16.50;4.53;;;;;;;;;;5106562;28;20046;-65
2022/03/27 13:24:17;;;;;;;13.75;5.05;;;;;;;;;;5094511;28;20093;-65
2022/03/27 13:26:44;;;;;;;19.20;5.82;;;;;;;;;;5097067;28;20127;-65
2022/03/27 13:29:19;;;;;;;14.38;4.90;;;;;;;;;;5094080;28;20055;-65
2022/03/27 13:31:45;;;;;;;14.02;4.82;;;;;;;;;;5098820;28;20046;-66
2022/03/27 13:34:15;;;;;;;16.35;5.47;;;;;;;;;;5070539;28;20112;-65
2022/03/27 13:36:42;;;;;;;15.98;4.75;;;;;;;;;;5086729;28;20514;-65
2022/03/27 13:39:09;;;;;;;15.98;4.72;;;;;;;;;;5100248;28;20696;-66
2022/03/27 13:44:21;;;;;;;16.67;5.00;;;;;;;;;;5098299;28;20044;-66
2022/03/27 13:46:48;;;;;;;16.75;4.88;;;;;;;;;;5091516;28;20048;-66
2022/03/27 13:49:14;;;;;;;14.63;4.95;;;;;;;;;;5098233;28;20533;-66
2022/03/27 13:51:40;;;;;;;16.63;3.97;;;;;;;;;;5103088;28;20043;-66
2022/03/27 13:54:06;;;;;;;12.88;4.28;;;;;;;;;;5097736;28;20569;-66
2022/03/27 13:56:35;;;;;;;14.88;4.38;;;;;;;;;;5102272;28;20127;-66
2022/03/27 13:59:01;;;;;;;14.75;4.03;;;;;;;;;;5092728;28;20127;-66
2022/03/27 14:01:28;;;;;;;12.63;4.80;;;;;;;;;;5089988;28;20123;-66
2022/03/27 14:03:54;;;;;;;18.25;4.78;;;;;;;;;;5098843;28;20518;-66
2022/03/27 14:06:20;;;;;;;12.57;3.90;;;;;;;;;;5108222;28;20171;-66
2022/03/27 14:08:46;;;;;;;12.93;3.95;;;;;;;;;;5096034;28;20047;-66
2022/03/27 14:11:12;;;;;;;16.38;4.97;;;;;;;;;;5098246;28;20036;-66
2022/03/27 14:13:38;;;;;;;12.63;4.45;;;;;;;;;;5091630;28;20151;-66
2022/03/27 14:16:04;;;;;;;12.13;3.65;;;;;;;;;;5093967;28;20071;-66
2022/03/27 14:18:30;;;;;;;13.75;3.95;;;;;;;;;;5093765;28;20038;-67
2022/03/27 14:20:56;;;;;;;13.40;4.25;;;;;;;;;;5095841;28;20050;-66
2022/03/27 14:23:22;;;;;;;11.48;3.95;;;;;;;;;;5096385;28;20040;-66
2022/03/27 14:25:48;;;;;;;14.90;4.07;;;;;;;;;;5092963;28;20037;-66
2022/03/27 14:28:14;;;;;;;10.60;3.53;;;;;;;;;;5094732;28;20043;-66
2022/03/27 14:30:40;;;;;;;11.27;3.70;;;;;;;;;;5095895;28;20089;-66
2022/03/27 14:33:06;;;;;;;11.38;3.45;;;;;;;;;;5094018;28;20039;-66
2022/03/27 14:35:32;;;;;;;13.10;3.92;;;;;;;;;;5097441;28;20134;-66
2022/03/27 14:37:58;;;;;;;13.05;3.83;;;;;;;;;;5097147;28;20509;-66
2022/03/27 14:40:25;;;;;;;13.50;3.65;;;;;;;;;;5093387;28;20123;-66